createdAt,value
2022-12-09T00:01:14.875Z,-1.30
2022-12-09T00:03:41.990Z,-1.30
2022-12-09T00:06:20.771Z,-1.30
2022-12-09T00:08:47.981Z,-1.30
2022-12-09T00:11:15.188Z,-1.30
2022-12-09T00:13:42.201Z,-1.30
2022-12-09T00:16:10.957Z,-1.30
2022-12-09T00:18:39.189Z,-1.30
2022-12-09T00:21:12.024Z,-1.30
2022-12-09T00:23:38.859Z,-1.30
2022-12-09T00:26:05.601Z,-1.20
2022-12-09T00:28:32.354Z,-1.20
2022-12-09T00:31:00.831Z,-1.20
2022-12-09T00:33:27.774Z,-1.20
2022-12-09T00:35:54.617Z,-1.10
2022-12-09T00:38:21.356Z,-1.10
2022-12-09T00:40:48.319Z,-1.10
2022-12-09T00:43:15.012Z,-1.20
2022-12-09T00:45:41.922Z,-1.20
2022-12-09T00:48:08.713Z,-1.20
2022-12-09T00:50:35.637Z,-1.20
2022-12-09T00:53:02.414Z,-1.20
2022-12-09T00:55:29.659Z,-1.20
2022-12-09T00:57:56.472Z,-1.20
2022-12-09T01:00:23.198Z,-1.20
2022-12-09T01:02:50.046Z,-1.40
2022-12-09T01:05:17.051Z,-1.20
2022-12-09T01:07:44.103Z,-1.20
2022-12-09T01:10:11.667Z,0.00
2022-12-09T01:12:39.079Z,-1.20
2022-12-09T01:15:07.406Z,-1.30
2022-12-09T01:17:34.487Z,-1.30
2022-12-09T01:20:01.273Z,-1.30
2022-12-09T01:22:28.876Z,-1.30
2022-12-09T01:24:55.695Z,-1.30
2022-12-09T01:27:22.488Z,-1.30
2022-12-09T01:29:49.142Z,-1.30
2022-12-09T01:32:16.271Z,-1.30
2022-12-09T01:34:43.292Z,-1.30
2022-12-09T01:37:10.134Z,-1.30
2022-12-09T01:39:37.685Z,-1.30
2022-12-09T01:42:05.236Z,-1.30
2022-12-09T01:44:33.842Z,-1.30
2022-12-09T01:47:02.451Z,-1.30
2022-12-09T01:49:32.963Z,-1.30
2022-12-09T01:52:05.939Z,-1.30
2022-12-09T01:54:33.081Z,-1.30
2022-12-09T01:56:59.915Z,-1.40
2022-12-09T01:59:27.876Z,-1.40
2022-12-09T02:01:58.165Z,-1.40
2022-12-09T02:04:26.416Z,-1.40
2022-12-09T02:06:53.163Z,-1.50
2022-12-09T02:09:20.071Z,-1.50
2022-12-09T02:11:57.327Z,-1.50
2022-12-09T02:14:58.390Z,-1.60
2022-12-09T02:17:41.964Z,-1.60
2022-12-09T02:20:54.900Z,-0.70
2022-12-09T02:23:28.584Z,-1.70
2022-12-09T02:26:01.030Z,-1.70
2022-12-09T02:29:05.182Z,-1.70
2022-12-09T02:31:50.937Z,-1.70
2022-12-09T02:34:19.785Z,-1.70
2022-12-09T02:37:05.009Z,-1.80
2022-12-09T02:39:47.223Z,-1.80
2022-12-09T02:42:17.571Z,-1.80
2022-12-09T02:44:45.767Z,-1.80
2022-12-09T02:47:15.956Z,-1.80
2022-12-09T02:49:43.324Z,-1.80
2022-12-09T02:52:10.867Z,-1.80
2022-12-09T02:54:37.983Z,-1.90
2022-12-09T02:57:11.941Z,-1.90
2022-12-09T02:59:38.907Z,-1.90
2022-12-09T03:02:20.852Z,-1.90
2022-12-09T03:05:10.554Z,-1.90
2022-12-09T03:07:44.701Z,-1.90
2022-12-09T03:10:18.258Z,-1.80
2022-12-09T03:12:53.058Z,-1.80
2022-12-09T03:15:20.527Z,-1.80
2022-12-09T03:17:47.864Z,-1.90
2022-12-09T03:20:18.943Z,-1.80
2022-12-09T03:22:46.942Z,-1.90
2022-12-09T03:25:23.907Z,-1.90
2022-12-09T03:28:04.053Z,-1.90
2022-12-09T03:30:32.096Z,-1.90
2022-12-09T03:32:59.549Z,-1.90
2022-12-09T03:35:43.401Z,-1.90
2022-12-09T03:38:16.385Z,-1.90
2022-12-09T03:40:43.992Z,-1.90
2022-12-09T03:43:14.755Z,-1.90
2022-12-09T03:45:41.922Z,-1.90
2022-12-09T03:48:09.172Z,-1.20
2022-12-09T03:50:49.277Z,-1.90
2022-12-09T03:53:20.778Z,-1.90
2022-12-09T03:55:59.347Z,-1.90
2022-12-09T03:58:27.608Z,-1.90
2022-12-09T04:00:54.287Z,-1.90
2022-12-09T04:03:22.326Z,-1.80
2022-12-09T04:05:49.148Z,-1.90
2022-12-09T04:08:15.927Z,-1.90
2022-12-09T04:10:42.958Z,-1.80
2022-12-09T04:13:09.758Z,-1.90
2022-12-09T04:15:36.436Z,-1.80
2022-12-09T04:18:03.287Z,-1.80
2022-12-09T04:20:30.285Z,-1.80
2022-12-09T04:22:57.246Z,-1.80
2022-12-09T04:25:23.940Z,-1.80
2022-12-09T04:27:50.580Z,-1.80
2022-12-09T04:30:17.680Z,-1.90
2022-12-09T04:32:44.973Z,-1.80
2022-12-09T04:35:11.935Z,-1.80
2022-12-09T04:37:39.007Z,-1.80
2022-12-09T04:40:07.458Z,-1.80
2022-12-09T04:42:34.678Z,-1.90
2022-12-09T04:45:01.528Z,-1.90
2022-12-09T04:47:28.593Z,-1.90
2022-12-09T04:49:55.649Z,-1.80
2022-12-09T04:52:22.693Z,-1.90
2022-12-09T04:54:50.930Z,-1.80
2022-12-09T04:57:18.737Z,-1.80
2022-12-09T04:59:45.839Z,-1.80
2022-12-09T05:02:12.794Z,-1.80
2022-12-09T05:04:39.674Z,-1.80
2022-12-09T05:07:07.062Z,-1.80
2022-12-09T05:09:34.357Z,-1.80
2022-12-09T05:12:01.189Z,-1.80
2022-12-09T05:14:28.086Z,-1.80
2022-12-09T05:16:54.862Z,-1.80
2022-12-09T05:19:22.024Z,-1.80
2022-12-09T05:21:49.160Z,-1.80
2022-12-09T05:24:16.138Z,-1.80
2022-12-09T05:26:42.960Z,-1.90
2022-12-09T05:29:09.887Z,-1.90
2022-12-09T05:31:37.086Z,-1.90
2022-12-09T05:34:04.067Z,-1.90
2022-12-09T05:36:31.251Z,-1.90
2022-12-09T05:38:58.056Z,-1.90
2022-12-09T05:41:25.404Z,-1.90
2022-12-09T05:43:53.232Z,-1.90
2022-12-09T05:46:21.586Z,-1.90
2022-12-09T05:48:49.095Z,-1.90
2022-12-09T05:51:27.176Z,-1.90
2022-12-09T05:53:54.928Z,-1.90
2022-12-09T05:56:23.349Z,-1.20
2022-12-09T05:58:51.060Z,-1.90
2022-12-09T06:01:18.129Z,-2.00
2022-12-09T06:03:47.661Z,-2.00
2022-12-09T06:06:16.864Z,-2.00
2022-12-09T06:08:45.954Z,-2.00
2022-12-09T06:11:19.847Z,-1.90
2022-12-09T06:13:47.815Z,-2.00
2022-12-09T06:16:16.778Z,-1.90
2022-12-09T06:18:43.735Z,-1.90
2022-12-09T06:21:12.740Z,-1.90
2022-12-09T06:23:43.612Z,-1.90
2022-12-09T06:26:22.924Z,-1.90
2022-12-09T06:28:50.259Z,-1.80
2022-12-09T06:31:17.520Z,-1.80
2022-12-09T06:34:01.030Z,-1.80
2022-12-09T06:36:29.612Z,-1.80
2022-12-09T06:38:58.337Z,-1.80
2022-12-09T06:41:26.923Z,-1.70
2022-12-09T06:43:53.876Z,-1.70
2022-12-09T06:46:23.749Z,-1.70
2022-12-09T06:48:51.357Z,-1.70
2022-12-09T06:51:19.021Z,-1.70
2022-12-09T06:53:46.847Z,-1.70
2022-12-09T06:56:14.347Z,-1.70
2022-12-09T06:58:43.087Z,-1.70
2022-12-09T07:01:22.784Z,-1.70
2022-12-09T07:03:51.649Z,-1.70
2022-12-09T07:06:35.332Z,-1.70
2022-12-09T07:09:22.225Z,-1.70
2022-12-09T07:11:49.611Z,-1.70
2022-12-09T07:14:18.306Z,-1.70
2022-12-09T07:16:46.249Z,-1.70
2022-12-09T07:19:18.213Z,-1.70
2022-12-09T07:21:45.580Z,-1.70
2022-12-09T07:24:13.259Z,-1.70
2022-12-09T07:26:40.090Z,-1.70
2022-12-09T07:29:07.437Z,-1.70
2022-12-09T07:31:35.819Z,-1.70
2022-12-09T07:34:04.910Z,-1.60
2022-12-09T07:36:33.011Z,-1.60
2022-12-09T07:39:06.195Z,-1.50
2022-12-09T07:41:33.198Z,-1.50
2022-12-09T07:44:00.482Z,-1.50
2022-12-09T07:46:27.643Z,-1.50
2022-12-09T07:48:55.511Z,-1.40
2022-12-09T07:51:24.361Z,-1.30
2022-12-09T07:53:51.723Z,-1.30
2022-12-09T07:56:19.404Z,-1.30
2022-12-09T07:58:53.174Z,-1.20
2022-12-09T08:01:23.013Z,-1.20
2022-12-09T08:03:51.364Z,-1.10
2022-12-09T08:06:21.574Z,-1.10
2022-12-09T08:08:49.249Z,-1.10
2022-12-09T08:11:19.131Z,-1.00
2022-12-09T08:13:46.904Z,-1.00
2022-12-09T08:16:15.994Z,-0.90
2022-12-09T08:18:43.221Z,-0.90
2022-12-09T08:21:19.633Z,-0.80
2022-12-09T08:23:47.154Z,-0.80
2022-12-09T08:26:16.337Z,-0.70
2022-12-09T08:28:43.646Z,-0.70
2022-12-09T08:31:14.598Z,-0.60
2022-12-09T08:33:41.874Z,-0.60
2022-12-09T08:36:24.051Z,-0.50
2022-12-09T08:38:51.036Z,-0.50
2022-12-09T08:41:35.379Z,-0.40
2022-12-09T08:44:18.040Z,-0.40
2022-12-09T08:46:51.960Z,-0.30
2022-12-09T08:49:22.051Z,-0.20
2022-12-09T08:51:50.912Z,-0.10
2022-12-09T08:54:18.845Z,-0.10
2022-12-09T08:56:47.634Z,0.00
2022-12-09T08:59:15.461Z,0.00
2022-12-09T09:01:42.300Z,0.00
2022-12-09T09:04:11.772Z,0.10
2022-12-09T09:06:40.771Z,0.20
2022-12-09T09:09:10.042Z,0.20
2022-12-09T09:11:37.419Z,0.10
2022-12-09T09:14:06.192Z,0.10
2022-12-09T09:16:34.061Z,0.00
2022-12-09T09:19:03.661Z,0.00
2022-12-09T09:21:30.671Z,0.00
2022-12-09T09:23:57.999Z,0.00
2022-12-09T09:26:28.153Z,0.00
2022-12-09T09:28:56.741Z,0.00
2022-12-09T09:31:25.028Z,0.10
2022-12-09T09:33:52.997Z,0.10
2022-12-09T09:36:24.643Z,0.20
2022-12-09T09:38:54.823Z,0.20
2022-12-09T09:41:49.557Z,0.30
2022-12-09T09:44:24.071Z,0.40
2022-12-09T09:46:52.726Z,0.40
2022-12-09T09:49:26.430Z,0.50
2022-12-09T09:51:53.584Z,0.50
2022-12-09T09:54:20.708Z,0.60
2022-12-09T09:57:16.594Z,0.60
2022-12-09T09:59:48.316Z,0.70
2022-12-09T10:02:34.453Z,0.70
2022-12-09T10:05:15.517Z,0.70
2022-12-09T10:07:44.864Z,0.80
2022-12-09T10:10:28.545Z,0.80
2022-12-09T10:13:09.477Z,0.80
2022-12-09T10:16:06.511Z,0.80
2022-12-09T10:18:37.177Z,0.90
2022-12-09T10:21:18.049Z,1.00
2022-12-09T10:23:45.831Z,1.00
2022-12-09T10:26:19.620Z,1.10
2022-12-09T10:28:48.387Z,1.20
2022-12-09T10:31:16.536Z,1.20
2022-12-09T10:33:43.880Z,1.40
2022-12-09T10:36:26.844Z,1.60
2022-12-09T10:38:57.621Z,1.70
2022-12-09T10:42:08.413Z,1.80
2022-12-09T10:44:35.484Z,1.80
2022-12-09T10:47:06.209Z,1.90
2022-12-09T10:49:34.889Z,2.00
2022-12-09T10:52:02.403Z,2.00
2022-12-09T10:54:39.297Z,1.90
2022-12-09T10:57:12.647Z,1.90
2022-12-09T10:59:41.681Z,1.80
2022-12-09T11:02:08.944Z,1.90
2022-12-09T11:04:40.933Z,1.80
2022-12-09T11:07:18.377Z,1.90
2022-12-09T11:09:48.391Z,1.90
2022-12-09T11:12:36.709Z,1.80
2022-12-09T11:15:22.020Z,1.70
2022-12-09T11:18:00.748Z,1.70
2022-12-09T11:20:29.846Z,1.60
2022-12-09T11:23:01.759Z,1.60
2022-12-09T11:25:31.801Z,1.60
2022-12-09T11:28:20.258Z,1.50
2022-12-09T11:31:28.988Z,1.50
2022-12-09T11:34:15.581Z,1.50
2022-12-09T11:36:47.178Z,1.50
2022-12-09T11:39:35.316Z,1.50
2022-12-09T11:42:18.653Z,1.50
2022-12-09T11:44:56.465Z,1.60
2022-12-09T11:47:29.158Z,1.60
2022-12-09T11:50:24.030Z,1.50
2022-12-09T11:53:11.033Z,1.60
2022-12-09T11:55:45.577Z,1.60
2022-12-09T11:58:16.154Z,1.60
2022-12-09T12:00:54.649Z,1.60
2022-12-09T12:03:27.235Z,1.60
2022-12-09T12:05:55.172Z,1.60
2022-12-09T12:08:43.507Z,1.70
2022-12-09T12:11:15.593Z,1.80
2022-12-09T12:13:46.270Z,1.80
2022-12-09T12:16:46.330Z,2.50
2022-12-09T12:19:22.283Z,1.80
2022-12-09T12:22:16.335Z,1.90
2022-12-09T12:24:46.012Z,2.00
2022-12-09T12:27:37.919Z,2.00
2022-12-09T12:30:18.278Z,2.00
2022-12-09T12:36:05.547Z,1.90
2022-12-09T12:38:34.987Z,1.90
2022-12-09T12:41:14.337Z,1.90
2022-12-09T12:44:05.563Z,1.90
2022-12-09T12:46:35.203Z,1.90
2022-12-09T12:49:05.099Z,1.90
2022-12-09T12:52:03.372Z,1.90
2022-12-09T12:54:36.618Z,1.80
2022-12-09T12:57:12.138Z,1.70
2022-12-09T13:00:02.532Z,1.60
2022-12-09T13:02:44.617Z,1.50
2022-12-09T13:05:32.194Z,1.40
2022-12-09T13:08:07.584Z,1.30
2022-12-09T13:10:44.581Z,1.20
2022-12-09T13:13:22.075Z,1.20
2022-12-09T13:15:51.707Z,1.10
2022-12-09T13:18:27.245Z,1.10
2022-12-09T13:20:59.045Z,1.10
2022-12-09T13:23:47.219Z,1.10
2022-12-09T13:26:41.286Z,1.10
2022-12-09T13:29:34.833Z,1.10
2022-12-09T13:32:23.007Z,1.10
2022-12-09T13:34:54.387Z,1.00
2022-12-09T13:37:55.057Z,1.00
2022-12-09T13:40:24.772Z,1.00
2022-12-09T13:42:57.038Z,1.00
2022-12-09T13:45:29.211Z,1.00
2022-12-09T13:48:08.681Z,1.00
2022-12-09T13:50:57.632Z,1.00
2022-12-09T13:53:29.203Z,1.00
2022-12-09T13:56:15.829Z,1.00
2022-12-09T13:59:25.308Z,1.00
2022-12-09T14:02:02.107Z,1.00
2022-12-09T14:04:34.629Z,1.00
2022-12-09T14:07:13.932Z,0.90
2022-12-09T14:09:53.701Z,0.90
2022-12-09T14:12:30.616Z,0.90
2022-12-09T14:15:02.343Z,0.80
2022-12-09T14:17:30.191Z,0.80
2022-12-09T14:19:56.888Z,0.70
2022-12-09T14:22:23.937Z,0.70
2022-12-09T14:24:58.490Z,0.70
2022-12-09T14:27:27.353Z,0.70
2022-12-09T14:30:00.711Z,0.60
2022-12-09T14:32:53.015Z,0.60
2022-12-09T14:35:30.717Z,0.60
2022-12-09T14:38:22.367Z,0.60
2022-12-09T14:40:56.604Z,0.60
2022-12-09T14:43:40.077Z,0.60
2022-12-09T14:46:18.918Z,0.60
2022-12-09T14:48:57.773Z,0.60
2022-12-09T14:51:37.683Z,0.60
2022-12-09T14:54:27.159Z,0.60
2022-12-09T14:57:00.211Z,0.50
2022-12-09T14:59:28.962Z,0.50
2022-12-09T15:02:14.835Z,0.40
2022-12-09T15:04:44.791Z,0.40
2022-12-09T15:07:25.142Z,0.30
2022-12-09T15:10:00.712Z,0.30
2022-12-09T15:12:32.411Z,0.30
2022-12-09T15:15:12.702Z,0.20
2022-12-09T15:17:49.069Z,0.20
2022-12-09T15:20:21.895Z,0.20
2022-12-09T15:22:53.682Z,0.20
2022-12-09T15:25:21.199Z,0.20
2022-12-09T15:28:01.016Z,0.20
2022-12-09T15:30:33.944Z,0.20
2022-12-09T15:33:01.002Z,0.20
2022-12-09T15:35:31.288Z,0.20
2022-12-09T15:38:01.921Z,0.20
2022-12-09T15:40:30.129Z,0.20
2022-12-09T15:43:02.028Z,0.20
2022-12-09T15:45:34.450Z,0.20
2022-12-09T15:48:23.784Z,0.30
2022-12-09T15:50:54.831Z,0.30
2022-12-09T15:53:28.062Z,0.30
2022-12-09T15:56:14.159Z,0.30
2022-12-09T15:58:50.405Z,0.30
2022-12-09T16:01:26.107Z,0.30
2022-12-09T16:03:54.406Z,0.30
2022-12-09T16:06:31.126Z,0.40
2022-12-09T16:08:58.351Z,0.40
2022-12-09T16:11:40.154Z,0.40
2022-12-09T16:14:07.370Z,0.30
2022-12-09T16:16:58.323Z,0.30
2022-12-09T16:19:31.027Z,0.30
2022-12-09T16:22:05.604Z,0.30
2022-12-09T16:24:57.847Z,0.30
2022-12-09T16:27:23.882Z,0.30
2022-12-09T16:29:53.460Z,0.30
2022-12-09T16:32:34.006Z,0.30
2022-12-09T16:35:28.450Z,0.40
2022-12-09T16:37:58.087Z,0.40
2022-12-09T16:40:24.842Z,0.40
2022-12-09T16:43:17.616Z,0.40
2022-12-09T16:45:52.395Z,0.40
2022-12-09T16:48:19.453Z,0.40
2022-12-09T16:50:47.686Z,0.40
2022-12-09T16:53:16.859Z,0.40
2022-12-09T16:55:59.653Z,0.30
2022-12-09T16:58:28.002Z,0.30
2022-12-09T17:00:55.399Z,0.30
2022-12-09T17:03:38.312Z,0.30
2022-12-09T17:06:05.409Z,0.30
2022-12-09T17:08:32.169Z,0.30
2022-12-09T17:10:59.842Z,0.30
2022-12-09T17:13:26.995Z,0.30
2022-12-09T17:15:58.104Z,0.30
2022-12-09T17:18:25.817Z,0.30
2022-12-09T17:21:06.148Z,0.30
2022-12-09T17:23:39.164Z,0.40
2022-12-09T17:26:08.885Z,0.30
2022-12-09T17:28:36.373Z,0.40
2022-12-09T17:31:07.918Z,0.40
2022-12-09T17:33:34.612Z,0.40
2022-12-09T17:36:01.289Z,0.40
2022-12-09T17:38:29.494Z,0.30
2022-12-09T17:40:56.686Z,0.30
2022-12-09T17:43:23.366Z,0.30
2022-12-09T17:45:50.140Z,0.40
2022-12-09T17:48:16.926Z,0.40
2022-12-09T17:50:43.791Z,0.40
2022-12-09T17:53:10.479Z,0.40
2022-12-09T17:55:39.012Z,0.40
2022-12-09T17:58:05.777Z,0.40
2022-12-09T18:00:33.676Z,0.40
2022-12-09T18:03:00.783Z,0.50
2022-12-09T18:05:27.422Z,0.50
2022-12-09T18:07:54.096Z,0.50
2022-12-09T18:10:20.859Z,0.50
2022-12-09T18:12:47.509Z,0.50
2022-12-09T18:15:14.253Z,0.60
2022-12-09T18:17:40.946Z,0.60
2022-12-09T18:20:08.520Z,0.60
2022-12-09T18:22:35.320Z,0.60
2022-12-09T18:25:01.999Z,0.50
2022-12-09T18:27:28.681Z,0.50
2022-12-09T18:29:55.372Z,0.60
2022-12-09T18:32:22.052Z,0.50
2022-12-09T18:34:49.203Z,0.60
2022-12-09T18:37:15.904Z,0.60
2022-12-09T18:39:42.607Z,0.60
2022-12-09T18:42:09.490Z,0.60
2022-12-09T18:44:36.378Z,0.60
2022-12-09T18:47:03.206Z,0.50
2022-12-09T18:49:30.032Z,0.50
2022-12-09T18:51:56.777Z,0.50
2022-12-09T18:54:28.183Z,0.50
2022-12-09T18:56:55.738Z,0.50
2022-12-09T18:59:25.023Z,0.60
2022-12-09T19:01:52.138Z,0.60
2022-12-09T19:04:25.491Z,0.50
2022-12-09T19:06:57.404Z,0.60
2022-12-09T19:09:31.982Z,0.60
2022-12-09T19:12:16.447Z,0.60
2022-12-09T19:14:47.112Z,0.60
2022-12-09T19:17:13.750Z,0.60
2022-12-09T19:19:40.492Z,0.60
2022-12-09T19:22:08.174Z,0.60
2022-12-09T19:24:39.802Z,0.60
2022-12-09T19:27:09.503Z,0.60
2022-12-09T19:29:36.363Z,0.60
2022-12-09T19:32:03.282Z,0.50
2022-12-09T19:34:31.006Z,0.60
2022-12-09T19:36:59.779Z,0.60
2022-12-09T19:39:30.162Z,0.60
2022-12-09T19:41:58.309Z,0.60
2022-12-09T19:44:52.370Z,0.60
2022-12-09T19:47:13.760Z,0.60
2022-12-09T19:49:42.080Z,0.60
2022-12-09T19:52:09.066Z,0.60
2022-12-09T19:54:35.914Z,0.60
2022-12-09T19:57:02.617Z,0.60
2022-12-09T19:59:29.385Z,0.70
2022-12-09T20:01:56.262Z,0.70
2022-12-09T20:07:11.196Z,0.70
2022-12-09T20:09:50.458Z,0.70
2022-12-09T20:12:17.430Z,0.80
2022-12-09T20:14:44.193Z,0.70
2022-12-09T20:17:11.119Z,0.70
2022-12-09T20:19:37.929Z,0.70
2022-12-09T20:22:04.760Z,0.70
2022-12-09T20:24:31.497Z,0.70
2022-12-09T20:26:58.207Z,0.70
2022-12-09T20:29:24.895Z,0.70
2022-12-09T20:31:52.787Z,0.70
2022-12-09T20:34:19.816Z,0.70
2022-12-09T20:36:46.830Z,0.70
2022-12-09T20:39:16.356Z,0.70
2022-12-09T20:41:43.661Z,0.70
2022-12-09T20:44:11.915Z,0.70
2022-12-09T20:46:39.794Z,0.80
2022-12-09T20:49:06.717Z,0.70
2022-12-09T20:51:38.444Z,0.70
2022-12-09T20:54:05.918Z,0.70
2022-12-09T20:56:33.044Z,0.70
2022-12-09T20:59:00.375Z,0.70
2022-12-09T21:01:38.153Z,0.70
2022-12-09T21:04:06.402Z,0.70
2022-12-09T21:06:38.273Z,0.70
2022-12-09T21:09:14.674Z,0.70
2022-12-09T21:11:41.451Z,0.70
2022-12-09T21:14:08.186Z,0.70
2022-12-09T21:16:40.080Z,0.60
2022-12-09T21:19:10.255Z,0.60
2022-12-09T21:21:38.216Z,0.60
2022-12-09T21:24:05.428Z,0.60
2022-12-09T21:26:32.217Z,0.50
2022-12-09T21:29:00.624Z,0.50
2022-12-09T21:31:30.004Z,0.50
2022-12-09T21:33:58.212Z,0.40
2022-12-09T21:36:26.808Z,0.40
2022-12-09T21:38:54.153Z,0.40
2022-12-09T21:41:23.370Z,0.40
2022-12-09T21:43:52.320Z,0.40
2022-12-09T21:46:22.423Z,0.40
2022-12-09T21:48:52.395Z,0.40
2022-12-09T21:51:20.754Z,0.40
2022-12-09T21:53:48.552Z,0.40
2022-12-09T21:56:23.767Z,0.40
2022-12-09T21:58:52.750Z,0.40
2022-12-09T22:01:26.612Z,0.40
2022-12-09T22:03:54.166Z,0.40
2022-12-09T22:06:21.501Z,0.40
2022-12-09T22:08:48.250Z,0.40
2022-12-09T22:11:26.564Z,0.40
2022-12-09T22:13:55.236Z,0.40
2022-12-09T22:16:24.652Z,0.40
2022-12-09T22:18:53.402Z,0.40
2022-12-09T22:21:25.966Z,0.40
2022-12-09T22:23:58.213Z,0.40
2022-12-09T22:26:25.350Z,0.40
2022-12-09T22:28:52.602Z,0.40
2022-12-09T22:31:25.603Z,0.40
2022-12-09T22:33:54.031Z,0.50
2022-12-09T22:36:21.399Z,0.50
2022-12-09T22:38:48.826Z,0.50
2022-12-09T22:41:17.934Z,0.50
2022-12-09T22:43:44.815Z,0.50
2022-12-09T22:46:13.833Z,0.50
2022-12-09T22:48:41.385Z,0.50
2022-12-09T22:51:25.550Z,0.50
2022-12-09T22:53:53.619Z,0.50
2022-12-09T22:56:20.961Z,0.50
2022-12-09T22:58:48.201Z,0.50
2022-12-09T23:01:20.366Z,0.50
2022-12-09T23:03:47.508Z,0.50
2022-12-09T23:06:14.424Z,0.60
2022-12-09T23:08:42.521Z,0.60
2022-12-09T23:11:15.922Z,0.60
2022-12-09T23:13:43.125Z,0.60
2022-12-09T23:16:13.330Z,0.70
2022-12-09T23:18:40.897Z,0.70
2022-12-09T23:21:10.417Z,0.70
2022-12-09T23:23:37.414Z,0.70
2022-12-09T23:26:13.512Z,0.70
2022-12-09T23:28:46.421Z,0.70
2022-12-09T23:31:15.733Z,0.60
2022-12-09T23:33:44.414Z,0.70
2022-12-09T23:36:13.903Z,0.70
2022-12-09T23:38:41.109Z,0.70
2022-12-09T23:41:08.141Z,0.70
2022-12-09T23:43:36.561Z,0.70
2022-12-09T23:46:15.343Z,0.70
2022-12-09T23:48:43.958Z,0.70
2022-12-09T23:51:13.053Z,0.70
2022-12-09T23:53:40.749Z,0.70
2022-12-09T23:56:10.285Z,0.70
2022-12-09T23:58:37.286Z,0.70
